Time;durP1;ratioP1;P1;durP2;ratioP2;P2;SDS_P1;SDS_P2;PMS_P1;PMS_P2;Temp;Humidity;BMP_temperature;BMP_pressure;BME280_temperature;BME280_humidity;BME280_pressure;Samples;Min_cycle;Max_cycle;Signal;HPM_P1;HPM_P2
2024/01/25 00:00:52;;;;;;;10.93;3.50;;;9.90;66.00;;;;;;4934708;28;20670;-83
2024/01/25 00:03:17;;;;;;;7.00;2.90;;;9.90;66.00;;;;;;4931302;29;20181;-82
2024/01/25 00:05:43;;;;;;;8.90;3.20;;;9.90;65.80;;;;;;4921479;29;20184;-81
2024/01/25 00:08:09;;;;;;;10.63;2.47;;;9.90;65.70;;;;;;4921291;29;20645;-82
2024/01/25 00:10:34;;;;;;;9.43;2.87;;;9.80;65.40;;;;;;4920415;29;20196;-81
2024/01/25 00:13:01;;;;;;;6.13;2.53;;;9.80;65.20;;;;;;4929311;29;20240;-83
2024/01/25 00:15:27;;;;;;;7.03;2.80;;;9.80;65.20;;;;;;4935894;29;20272;-81
2024/01/25 00:17:52;;;;;;;8.20;2.73;;;9.80;65.40;;;;;;4934563;29;20336;-83
2024/01/25 00:20:18;;;;;;;7.00;2.93;;;9.90;65.70;;;;;;4936504;29;20694;-81
2024/01/25 00:22:44;;;;;;;8.73;2.50;;;9.90;65.60;;;;;;4934278;28;20200;-83
2024/01/25 00:25:09;;;;;;;7.37;2.90;;;9.90;65.90;;;;;;4935826;29;20316;-82
2024/01/25 00:27:35;;;;;;;6.33;2.67;;;9.90;65.90;;;;;;4949189;28;20193;-81
2024/01/25 00:30:00;;;;;;;8.70;3.13;;;9.90;66.00;;;;;;4935032;29;20181;-82
2024/01/25 00:32:26;;;;;;;7.77;2.83;;;9.80;66.00;;;;;;4936204;29;20544;-83
2024/01/25 00:34:52;;;;;;;11.87;3.80;;;9.80;66.10;;;;;;4934636;29;20193;-82
2024/01/25 00:37:18;;;;;;;9.53;3.73;;;9.80;66.20;;;;;;4935628;29;20213;-83
2024/01/25 00:39:44;;;;;;;11.87;3.17;;;9.80;66.30;;;;;;4934898;29;20628;-82
2024/01/25 00:42:12;;;;;;;10.80;3.27;;;9.70;66.50;;;;;;4934047;29;20196;-83
2024/01/25 00:44:38;;;;;;;13.33;3.80;;;9.70;66.70;;;;;;4935617;29;20180;-82
2024/01/25 00:47:04;;;;;;;7.63;3.37;;;9.70;66.70;;;;;;4949211;28;20257;-82
2024/01/25 00:49:30;;;;;;;10.57;3.37;;;9.80;66.70;;;;;;4935064;28;20189;-83
2024/01/25 00:52:02;;;;;;;14.53;4.27;;;9.80;66.60;;;;;;4934418;29;20331;-82
2024/01/25 00:54:28;;;;;;;10.27;3.60;;;9.80;66.70;;;;;;4935510;29;20536;-83
2024/01/25 00:56:54;;;;;;;12.47;3.97;;;9.80;66.70;;;;;;4951297;28;20208;-82
2024/01/25 00:59:20;;;;;;;15.30;4.83;;;9.80;66.60;;;;;;4934694;29;20639;-82
2024/01/25 01:01:52;;;;;;;13.20;4.27;;;9.80;66.60;;;;;;4933960;29;20537;-82
2024/01/25 01:04:17;;;;;;;11.90;4.77;;;9.80;66.60;;;;;;4935490;29;20189;-82
2024/01/25 01:06:44;;;;;;;14.13;4.03;;;9.70;66.10;;;;;;4931860;29;20670;-83
2024/01/25 01:09:09;;;;;;;13.67;4.13;;;9.70;66.10;;;;;;4933866;29;20204;-82
2024/01/25 01:11:36;;;;;;;16.47;4.30;;;9.70;66.40;;;;;;4935670;29;20174;-81
2024/01/25 01:14:02;;;;;;;13.67;3.60;;;9.70;66.30;;;;;;4922845;29;20201;-82
2024/01/25 01:16:30;;;;;;;12.67;4.07;;;9.70;66.10;;;;;;4936752;29;20213;-83
2024/01/25 01:18:56;;;;;;;13.97;4.07;;;9.80;66.30;;;;;;4939478;29;20240;-82
2024/01/25 01:21:22;;;;;;;16.33;4.40;;;9.60;66.00;;;;;;4933215;29;20642;-82
2024/01/25 01:23:47;;;;;;;11.50;3.73;;;9.70;66.10;;;;;;4935257;29;20181;-82
2024/01/25 01:26:13;;;;;;;16.37;4.70;;;9.70;66.10;;;;;;4935001;29;20550;-82
2024/01/25 01:28:39;;;;;;;13.73;4.13;;;9.60;66.00;;;;;;4934099;29;20185;-83
2024/01/25 01:31:04;;;;;;;13.50;3.57;;;9.60;66.30;;;;;;4933992;29;20555;-82
2024/01/25 01:33:30;;;;;;;18.80;4.53;;;9.60;66.40;;;;;;4933095;29;20190;-83
2024/01/25 01:35:55;;;;;;;13.47;3.47;;;9.60;66.80;;;;;;4933774;29;20177;-82
2024/01/25 01:38:21;;;;;;;15.13;4.33;;;9.50;66.70;;;;;;4935652;29;20532;-82
2024/01/25 01:40:46;;;;;;;17.63;4.87;;;9.60;66.70;;;;;;4933924;28;20187;-82
2024/01/25 01:43:23;;;;;;;15.17;4.10;;;9.60;66.40;;;;;;4934722;29;20656;-82
2024/01/25 01:45:49;;;;;;;16.73;5.00;;;9.60;66.60;;;;;;4933880;29;20197;-82
2024/01/25 01:48:15;;;;;;;15.77;4.27;;;9.50;66.30;;;;;;4933031;29;20193;-81
2024/01/25 01:50:42;;;;;;;15.27;4.40;;;9.50;66.40;;;;;;4936036;29;20546;-82
2024/01/25 01:53:07;;;;;;;18.07;4.47;;;9.50;66.50;;;;;;4929856;29;20185;-82
2024/01/25 01:55:33;;;;;;;19.93;5.30;;;9.60;66.30;;;;;;4943276;28;20516;-82
2024/01/25 01:57:59;;;;;;;14.60;4.40;;;9.60;66.50;;;;;;4948029;28;20208;-83
2024/01/25 02:00:26;;;;;;;16.90;4.97;;;9.60;66.40;;;;;;4952183;28;20196;-82
2024/01/25 02:02:52;;;;;;;15.13;4.77;;;9.60;66.30;;;;;;4938073;28;20631;-83
2024/01/25 02:05:17;;;;;;;15.57;4.90;;;9.60;65.90;;;;;;4954851;28;20189;-83
2024/01/25 02:07:44;;;;;;;14.63;4.23;;;9.50;65.70;;;;;;4937862;29;20271;-81
2024/01/25 02:10:09;;;;;;;15.00;3.80;;;9.50;65.70;;;;;;4952797;29;20204;-81
2024/01/25 02:12:36;;;;;;;14.30;4.20;;;9.60;65.80;;;;;;4938520;29;20583;-83
2024/01/25 02:15:03;;;;;;;21.33;5.73;;;9.60;65.80;;;;;;4936353;29;20181;-83
2024/01/25 02:17:29;;;;;;;18.03;5.23;;;9.60;65.80;;;;;;4938733;28;20615;-83
2024/01/25 02:19:54;;;;;;;20.60;5.43;;;9.60;65.90;;;;;;4951440;29;20239;-82
2024/01/25 02:22:20;;;;;;;19.73;5.57;;;9.60;65.90;;;;;;4938032;29;20276;-82
2024/01/25 02:24:45;;;;;;;24.10;5.73;;;9.60;65.50;;;;;;4951508;28;20185;-83
2024/01/25 02:27:11;;;;;;;23.13;5.60;;;9.60;65.50;;;;;;4936844;29;20185;-81
2024/01/25 02:29:37;;;;;;;17.37;4.63;;;9.50;65.50;;;;;;4938601;29;20214;-82
2024/01/25 02:32:03;;;;;;;18.87;4.50;;;9.50;65.60;;;;;;4951552;28;20200;-83
2024/01/25 02:34:28;;;;;;;16.67;4.77;;;9.50;65.80;;;;;;4937725;29;20196;-82
2024/01/25 02:36:54;;;;;;;13.40;4.33;;;9.50;65.90;;;;;;4936867;29;20208;-83
2024/01/25 02:39:20;;;;;;;14.37;4.43;;;9.50;65.80;;;;;;4936692;28;20657;-81
2024/01/25 02:41:45;;;;;;;20.50;4.77;;;9.40;66.00;;;;;;4937926;29;20570;-82
2024/01/25 02:44:11;;;;;;;17.37;4.33;;;9.40;66.30;;;;;;4937161;29;20287;-82
2024/01/25 02:46:38;;;;;;;18.50;4.47;;;9.40;66.50;;;;;;4937733;29;20200;-82
2024/01/25 02:49:04;;;;;;;16.33;5.33;;;9.40;66.60;;;;;;4936537;29;20220;-82
2024/01/25 02:51:30;;;;;;;16.13;4.40;;;9.40;66.70;;;;;;4951902;28;20186;-82
2024/01/25 02:53:55;;;;;;;17.23;4.37;;;9.40;67.50;;;;;;4954137;29;20240;-83
2024/01/25 02:56:21;;;;;;;21.97;4.87;;;9.40;66.70;;;;;;4937897;29;20211;-82
2024/01/25 02:58:47;;;;;;;21.27;4.90;;;9.30;66.70;;;;;;4936225;28;20547;-82
2024/01/25 03:01:12;;;;;;;13.53;3.83;;;9.40;67.00;;;;;;4937430;28;20195;-83
2024/01/25 03:03:38;;;;;;;20.50;5.00;;;9.40;67.30;;;;;;4937368;29;20216;-82
2024/01/25 03:06:06;;;;;;;17.83;4.17;;;9.40;67.30;;;;;;4953171;29;20192;-83
2024/01/25 03:08:31;;;;;;;18.83;3.97;;;9.40;67.20;;;;;;4938334;29;20267;-82
2024/01/25 03:10:57;;;;;;;13.00;4.40;;;9.40;67.50;;;;;;4935587;29;20292;-82
2024/01/25 03:13:23;;;;;;;18.10;5.17;;;9.40;67.70;;;;;;4936735;29;20276;-83
2024/01/25 03:15:48;;;;;;;17.10;4.90;;;9.40;67.70;;;;;;4936593;29;20185;-83
2024/01/25 03:18:14;;;;;;;16.70;4.73;;;9.40;67.60;;;;;;4935815;29;20557;-83
2024/01/25 03:20:39;;;;;;;17.80;4.97;;;9.40;67.60;;;;;;4954057;28;20227;-82
2024/01/25 03:23:05;;;;;;;17.47;4.43;;;9.30;67.50;;;;;;4936259;29;20825;-82
2024/01/25 03:25:31;;;;;;;17.60;4.57;;;9.30;67.60;;;;;;4936927;28;20287;-83
2024/01/25 03:27:57;;;;;;;15.37;4.13;;;9.40;67.70;;;;;;4936116;28;20664;-82
2024/01/25 03:30:22;;;;;;;14.97;4.13;;;9.40;67.70;;;;;;4921018;29;20209;-83
2024/01/25 03:32:48;;;;;;;15.40;4.17;;;9.30;67.50;;;;;;4954131;29;20181;-82
2024/01/25 03:35:14;;;;;;;18.30;4.17;;;9.30;67.50;;;;;;4937021;29;20670;-81
2024/01/25 03:37:39;;;;;;;14.50;4.30;;;9.30;67.50;;;;;;4936575;29;20590;-81
2024/01/25 03:40:05;;;;;;;12.07;4.67;;;9.40;67.80;;;;;;4935839;29;20192;-82
2024/01/25 03:42:31;;;;;;;18.67;5.23;;;9.30;67.80;;;;;;4950896;28;20246;-83
2024/01/25 03:44:57;;;;;;;19.03;4.93;;;9.30;67.80;;;;;;4936211;29;20635;-83
2024/01/25 03:47:23;;;;;;;13.47;4.40;;;9.30;67.60;;;;;;4934495;29;20181;-83
2024/01/25 03:49:49;;;;;;;16.97;4.70;;;9.30;67.60;;;;;;4949865;29;20556;-82
2024/01/25 03:52:14;;;;;;;18.53;5.70;;;9.20;67.40;;;;;;4950948;29;20248;-82
2024/01/25 03:54:40;;;;;;;17.47;4.70;;;9.30;67.80;;;;;;4950672;28;20192;-81
2024/01/25 03:57:05;;;;;;;16.97;4.77;;;9.20;67.70;;;;;;4934561;29;20216;-82
2024/01/25 03:59:31;;;;;;;13.73;3.60;;;9.20;67.70;;;;;;4937007;29;20213;-81
2024/01/25 04:01:57;;;;;;;18.07;4.37;;;9.20;67.90;;;;;;4935350;29;20214;-81
2024/01/25 04:04:22;;;;;;;18.90;4.00;;;9.20;67.90;;;;;;4936529;29;20236;-82
2024/01/25 04:06:48;;;;;;;18.23;4.50;;;9.20;67.70;;;;;;4935571;29;20204;-82
2024/01/25 04:09:15;;;;;;;17.80;4.83;;;9.20;67.60;;;;;;4951948;28;20177;-83
2024/01/25 04:11:41;;;;;;;21.17;5.43;;;9.20;67.60;;;;;;4954108;29;20181;-82
2024/01/25 04:14:06;;;;;;;20.80;4.80;;;9.20;67.60;;;;;;4949505;28;20626;-81
2024/01/25 04:16:33;;;;;;;17.27;4.93;;;9.30;67.70;;;;;;4936047;29;20213;-82
2024/01/25 04:18:58;;;;;;;21.73;5.23;;;9.10;67.70;;;;;;4934968;29;20216;-82
2024/01/25 04:21:24;;;;;;;20.33;5.47;;;9.20;67.90;;;;;;4934016;29;20177;-82
2024/01/25 04:23:50;;;;;;;15.33;4.00;;;9.20;68.00;;;;;;4935197;29;20181;-82
2024/01/25 04:26:18;;;;;;;17.73;4.63;;;9.20;67.90;;;;;;4951418;28;20204;-82
2024/01/25 04:28:43;;;;;;;15.90;3.70;;;9.10;67.80;;;;;;4950122;28;20181;-82
2024/01/25 04:31:09;;;;;;;18.13;5.00;;;9.10;67.90;;;;;;4934941;29;20666;-82
2024/01/25 04:33:35;;;;;;;16.57;5.43;;;9.00;67.60;;;;;;4933871;29;20193;-83
2024/01/25 04:36:00;;;;;;;20.83;5.47;;;9.00;67.80;;;;;;4952044;28;20181;-82
2024/01/25 04:38:26;;;;;;;24.07;6.13;;;9.00;67.90;;;;;;4936170;29;20211;-82
2024/01/25 04:40:51;;;;;;;19.30;4.80;;;8.90;67.80;;;;;;4933696;28;20193;-82
2024/01/25 04:43:17;;;;;;;14.77;4.20;;;9.10;68.20;;;;;;4935851;29;20636;-82
2024/01/25 04:45:43;;;;;;;15.27;4.43;;;9.10;68.10;;;;;;4934520;29;20185;-82
2024/01/25 04:48:08;;;;;;;18.43;4.57;;;9.00;67.90;;;;;;4933781;29;20279;-82
2024/01/25 04:50:34;;;;;;;13.10;4.50;;;9.10;68.10;;;;;;4936223;29;20263;-82
2024/01/25 04:53:02;;;;;;;20.67;5.03;;;9.20;68.10;;;;;;4934086;29;20714;-82
2024/01/25 04:55:28;;;;;;;15.70;4.87;;;9.10;67.50;;;;;;4928813;29;20186;-82
2024/01/25 04:57:53;;;;;;;16.97;4.60;;;9.10;67.30;;;;;;4936814;28;20706;-81
2024/01/25 05:00:21;;;;;;;17.33;5.17;;;9.10;67.40;;;;;;4934563;29;20715;-81
2024/01/25 05:02:47;;;;;;;13.27;3.70;;;9.00;67.20;;;;;;4952443;28;20264;-83
2024/01/25 05:05:13;;;;;;;16.50;4.17;;;9.10;67.50;;;;;;4935174;29;20228;-81
2024/01/25 05:07:39;;;;;;;11.23;3.90;;;9.00;66.90;;;;;;4949356;28;20220;-82
2024/01/25 05:10:05;;;;;;;12.43;4.07;;;9.00;66.80;;;;;;4948300;28;20189;-81
2024/01/25 05:12:31;;;;;;;13.67;3.93;;;8.80;66.70;;;;;;4934486;29;20221;-83
2024/01/25 05:14:57;;;;;;;12.73;4.47;;;9.00;67.30;;;;;;4952848;28;20186;-81
2024/01/25 05:17:23;;;;;;;16.80;4.40;;;8.90;67.50;;;;;;4946476;28;20219;-83
2024/01/25 05:19:49;;;;;;;13.43;4.30;;;8.90;67.70;;;;;;4944110;28;20201;-82
2024/01/25 05:22:14;;;;;;;16.80;3.97;;;9.00;67.30;;;;;;4934481;29;20639;-82
2024/01/25 05:24:40;;;;;;;14.27;3.70;;;9.00;67.00;;;;;;4933581;29;20264;-82
2024/01/25 05:27:06;;;;;;;14.27;4.67;;;9.00;66.80;;;;;;4950555;28;20180;-81
2024/01/25 05:29:31;;;;;;;12.23;3.87;;;9.10;66.70;;;;;;4950949;28;20196;-82
2024/01/25 05:31:57;;;;;;;13.33;4.07;;;9.00;66.40;;;;;;4948050;28;20730;-83
2024/01/25 05:34:23;;;;;;;16.90;5.13;;;9.00;66.20;;;;;;4934489;29;20189;-81
2024/01/25 05:36:48;;;;;;;16.33;4.10;;;9.00;66.20;;;;;;4933733;29;20221;-82
2024/01/25 05:39:15;;;;;;;17.13;5.20;;;9.00;66.30;;;;;;4951268;28;20185;-82
2024/01/25 05:41:40;;;;;;;14.63;4.50;;;9.00;66.30;;;;;;4935855;29;20683;-82
2024/01/25 05:44:06;;;;;;;16.33;4.53;;;9.00;66.40;;;;;;4949794;28;20197;-82
2024/01/25 05:46:31;;;;;;;17.23;4.90;;;9.10;66.50;;;;;;4934790;28;20231;-82
2024/01/25 05:48:57;;;;;;;16.27;4.87;;;9.10;66.00;;;;;;4934158;29;20193;-81
2024/01/25 05:51:23;;;;;;;18.00;5.27;;;9.00;65.80;;;;;;4950943;28;20193;-82
2024/01/25 05:53:48;;;;;;;19.30;5.30;;;9.00;65.70;;;;;;4934757;29;20189;-82
2024/01/25 05:56:14;;;;;;;14.97;4.40;;;9.10;66.00;;;;;;4948894;29;20203;-81
2024/01/25 05:58:39;;;;;;;14.87;4.60;;;9.00;65.80;;;;;;4934597;28;20704;-82
2024/01/25 06:01:06;;;;;;;14.00;4.67;;;9.10;65.70;;;;;;4933970;29;20231;-83
2024/01/25 06:03:31;;;;;;;14.10;4.93;;;9.00;65.30;;;;;;4949049;29;20221;-81
2024/01/25 06:05:57;;;;;;;17.20;3.93;;;9.00;65.40;;;;;;4934493;29;20216;-82
2024/01/25 06:08:23;;;;;;;15.70;4.23;;;9.00;65.40;;;;;;4934597;29;20197;-82
2024/01/25 06:10:49;;;;;;;19.83;4.80;;;8.90;65.60;;;;;;4934502;28;20199;-83
2024/01/25 06:13:14;;;;;;;14.53;4.57;;;9.00;65.90;;;;;;4934615;29;20677;-81
2024/01/25 06:15:40;;;;;;;17.57;4.63;;;9.10;65.80;;;;;;4949017;28;20189;-82
2024/01/25 06:18:06;;;;;;;15.70;5.10;;;9.00;65.80;;;;;;4950646;29;20209;-82
2024/01/25 06:20:32;;;;;;;15.17;4.70;;;9.00;65.80;;;;;;4936858;28;20636;-82
2024/01/25 06:22:58;;;;;;;15.33;4.63;;;9.10;65.80;;;;;;4945076;28;20647;-83
2024/01/25 06:25:23;;;;;;;14.80;4.47;;;9.00;65.50;;;;;;4934683;28;20279;-81
2024/01/25 06:27:49;;;;;;;15.90;4.60;;;9.10;65.50;;;;;;4934496;29;20189;-82
2024/01/25 06:30:15;;;;;;;19.40;4.70;;;9.00;65.40;;;;;;4950072;28;20530;-82
2024/01/25 06:32:40;;;;;;;19.33;4.93;;;9.00;65.40;;;;;;4935011;28;20185;-82
2024/01/25 06:35:07;;;;;;;16.90;4.57;;;9.20;65.80;;;;;;4933749;29;20200;-81
2024/01/25 06:37:32;;;;;;;15.40;4.83;;;9.10;65.60;;;;;;4948432;28;20219;-82
2024/01/25 06:39:58;;;;;;;21.07;5.20;;;9.30;65.80;;;;;;4933400;29;20201;-83
2024/01/25 06:42:24;;;;;;;17.07;4.47;;;9.20;65.40;;;;;;4950101;28;20189;-83
2024/01/25 06:44:49;;;;;;;17.17;4.73;;;9.20;65.30;;;;;;4935352;28;20185;-83
2024/01/25 06:47:15;;;;;;;17.07;4.73;;;9.20;65.20;;;;;;4952440;28;20199;-82
2024/01/25 06:49:41;;;;;;;14.53;4.37;;;9.20;65.40;;;;;;4937284;29;20228;-81
2024/01/25 06:52:06;;;;;;;15.87;4.40;;;9.20;65.70;;;;;;4951058;28;20213;-82
2024/01/25 06:54:32;;;;;;;16.03;4.80;;;9.10;65.70;;;;;;4936962;29;20596;-81
2024/01/25 06:56:58;;;;;;;15.17;4.83;;;9.10;66.10;;;;;;4937464;29;20260;-82
2024/01/25 06:59:23;;;;;;;20.23;5.73;;;9.10;66.20;;;;;;4937382;29;20200;-83
2024/01/25 07:01:49;;;;;;;18.57;5.17;;;9.10;66.50;;;;;;4937320;29;20216;-82
2024/01/25 07:04:15;;;;;;;17.67;5.30;;;9.30;66.50;;;;;;4936864;29;20276;-82
2024/01/25 07:06:41;;;;;;;20.03;5.37;;;9.10;66.40;;;;;;4937014;28;20227;-83
2024/01/25 07:09:06;;;;;;;18.07;5.43;;;9.10;66.50;;;;;;4936734;29;20192;-82
2024/01/25 07:11:32;;;;;;;19.57;5.47;;;9.00;66.70;;;;;;4937484;28;20189;-82
2024/01/25 07:13:58;;;;;;;17.83;5.47;;;9.10;67.10;;;;;;4936831;28;20302;-82
2024/01/25 07:16:23;;;;;;;19.43;5.03;;;9.10;67.20;;;;;;4937277;29;20212;-82
2024/01/25 07:18:49;;;;;;;17.07;4.90;;;9.10;67.20;;;;;;4936973;29;20251;-82
2024/01/25 07:21:15;;;;;;;18.27;4.83;;;9.00;67.20;;;;;;4935874;29;20178;-83
2024/01/25 07:23:40;;;;;;;14.67;4.37;;;9.00;67.60;;;;;;4937983;29;20695;-83
2024/01/25 07:26:06;;;;;;;16.20;4.13;;;8.90;67.80;;;;;;4936209;28;20280;-82
2024/01/25 07:28:32;;;;;;;10.43;4.40;;;8.90;68.10;;;;;;4953587;29;20211;-81
2024/01/25 07:30:57;;;;;;;10.53;4.23;;;8.90;68.40;;;;;;4950477;28;20193;-83
2024/01/25 07:33:23;;;;;;;17.30;4.03;;;8.90;68.50;;;;;;4952306;28;20169;-82
2024/01/25 07:35:48;;;;;;;12.20;4.60;;;8.90;68.40;;;;;;4937945;29;20698;-81
2024/01/25 07:38:15;;;;;;;10.33;3.37;;;9.00;68.60;;;;;;4935678;29;20220;-81
2024/01/25 07:40:41;;;;;;;11.33;3.83;;;9.20;68.60;;;;;;4950951;28;20196;-82
2024/01/25 07:43:06;;;;;;;15.50;4.80;;;9.10;68.40;;;;;;4936052;29;20280;-82
2024/01/25 07:45:32;;;;;;;12.07;3.87;;;9.00;68.30;;;;;;4936103;29;20277;-81
2024/01/25 07:47:59;;;;;;;11.43;4.00;;;8.90;68.30;;;;;;4936970;29;20189;-81
2024/01/25 07:50:24;;;;;;;15.70;5.07;;;9.00;68.60;;;;;;4952334;28;20213;-81
2024/01/25 07:52:50;;;;;;;17.33;4.43;;;9.00;68.80;;;;;;4935750;29;20209;-81
2024/01/25 07:55:18;;;;;;;11.57;4.40;;;9.10;68.80;;;;;;4936430;29;20267;-82
2024/01/25 07:57:44;;;;;;;14.27;3.77;;;9.00;68.80;;;;;;4936253;29;20694;-81
2024/01/25 08:00:10;;;;;;;12.43;4.63;;;9.00;68.90;;;;;;4935386;29;20189;-81
2024/01/25 08:02:36;;;;;;;12.53;4.73;;;8.90;68.70;;;;;;4951549;29;20181;-82
2024/01/25 08:05:02;;;;;;;9.60;3.93;;;8.90;69.10;;;;;;4953439;28;20714;-82
2024/01/25 08:07:28;;;;;;;16.17;4.17;;;8.80;69.20;;;;;;4936129;29;20284;-82
2024/01/25 08:09:57;;;;;;;12.33;4.27;;;8.80;69.30;;;;;;4935684;28;20195;-81
2024/01/25 08:12:24;;;;;;;9.80;3.93;;;8.80;69.70;;;;;;4935670;29;20236;-83
2024/01/25 08:14:50;;;;;;;18.57;4.80;;;8.80;69.70;;;;;;4952762;28;20216;-82
2024/01/25 08:17:15;;;;;;;10.17;4.33;;;8.80;69.60;;;;;;4935175;28;20608;-82
2024/01/25 08:19:41;;;;;;;11.97;4.47;;;9.00;69.70;;;;;;4936284;29;20621;-83
2024/01/25 08:22:07;;;;;;;10.10;4.00;;;8.80;69.40;;;;;;4951682;29;20181;-82
2024/01/25 08:24:32;;;;;;;6.93;4.27;;;8.80;69.30;;;;;;4933910;29;20213;-83
2024/01/25 08:26:58;;;;;;;5.67;3.27;;;8.80;69.40;;;;;;4936391;29;20188;-80
2024/01/25 08:29:24;;;;;;;6.87;3.00;;;8.90;69.70;;;;;;4950203;29;20642;-83
2024/01/25 08:31:49;;;;;;;6.97;3.00;;;8.80;69.50;;;;;;4935747;29;20192;-83
2024/01/25 08:34:15;;;;;;;5.63;3.20;;;8.90;69.50;;;;;;4949549;28;20189;-81
2024/01/25 08:36:40;;;;;;;6.80;3.27;;;8.90;69.40;;;;;;4934771;29;20271;-81
2024/01/25 08:39:08;;;;;;;8.90;3.93;;;9.00;69.50;;;;;;4953184;29;20177;-82
2024/01/25 08:41:34;;;;;;;9.93;4.10;;;8.90;69.40;;;;;;4935999;29;20208;-83
2024/01/25 08:44:00;;;;;;;7.40;3.17;;;9.00;69.50;;;;;;4934824;28;20244;-82
2024/01/25 08:46:26;;;;;;;8.90;3.47;;;8.90;69.50;;;;;;4935422;29;20201;-82
2024/01/25 08:48:52;;;;;;;6.70;3.57;;;8.90;69.50;;;;;;4950454;28;20213;-82
2024/01/25 08:51:17;;;;;;;8.53;3.63;;;8.80;69.50;;;;;;4951900;28;20650;-82
2024/01/25 08:53:43;;;;;;;7.47;3.60;;;8.80;69.70;;;;;;4951357;28;20209;-82
2024/01/25 08:56:08;;;;;;;9.17;3.80;;;8.80;69.80;;;;;;4951414;28;20268;-82
2024/01/25 08:58:34;;;;;;;6.53;3.40;;;8.90;70.00;;;;;;4935520;29;20272;-82
2024/01/25 09:01:00;;;;;;;6.23;3.60;;;8.90;70.00;;;;;;4933894;29;22396;-82
2024/01/25 09:03:26;;;;;;;7.67;3.87;;;8.90;70.10;;;;;;4934185;29;20187;-82
2024/01/25 09:05:52;;;;;;;5.67;3.60;;;8.80;70.10;;;;;;4951608;29;20368;-82
2024/01/25 09:08:18;;;;;;;9.47;3.63;;;8.80;70.20;;;;;;4933841;28;20195;-81
2024/01/25 09:10:44;;;;;;;7.60;3.67;;;9.00;70.50;;;;;;4949656;28;20602;-81
2024/01/25 09:13:10;;;;;;;7.70;3.93;;;8.90;70.40;;;;;;4934486;29;20228;-82
2024/01/25 09:15:36;;;;;;;6.97;4.00;;;8.90;70.40;;;;;;4933625;29;20547;-82
2024/01/25 09:18:02;;;;;;;7.67;4.70;;;9.00;70.50;;;;;;4952279;29;20241;-85
2024/01/25 09:20:27;;;;;;;7.90;4.13;;;8.90;70.40;;;;;;4949316;28;20212;-84
2024/01/25 09:22:56;;;;;;;9.90;5.00;;;8.90;70.60;;;;;;4949188;29;20197;-85
2024/01/25 09:25:23;;;;;;;7.03;4.03;;;8.90;70.60;;;;;;4934721;29;20251;-84
2024/01/25 09:27:49;;;;;;;7.17;4.23;;;8.90;70.70;;;;;;4949502;29;20217;-85
2024/01/25 09:30:15;;;;;;;6.77;5.07;;;8.90;71.00;;;;;;4933974;29;20213;-85
2024/01/25 09:32:40;;;;;;;9.80;5.33;;;8.80;71.10;;;;;;4935479;29;20181;-84
2024/01/25 09:35:07;;;;;;;9.47;5.10;;;8.80;71.30;;;;;;4934356;29;20189;-85
2024/01/25 09:37:33;;;;;;;7.93;5.33;;;8.90;71.60;;;;;;4934871;29;20210;-84
2024/01/25 09:39:59;;;;;;;12.30;5.53;;;8.90;71.40;;;;;;4948535;28;20220;-84
2024/01/25 09:42:24;;;;;;;9.40;5.73;;;9.00;71.40;;;;;;4934720;29;20658;-85
2024/01/25 09:44:53;;;;;;;7.20;4.93;;;9.00;71.40;;;;;;4950599;29;20635;-85
2024/01/25 09:47:21;;;;;;;6.13;4.80;;;8.90;71.40;;;;;;4934289;28;20252;-84
2024/01/25 09:49:47;;;;;;;5.30;4.63;;;8.90;71.70;;;;;;4935149;29;20195;-84
2024/01/25 09:52:13;;;;;;;6.13;4.60;;;8.90;71.80;;;;;;4934378;29;20184;-84
2024/01/25 09:54:39;;;;;;;9.40;5.77;;;8.80;72.00;;;;;;4949577;29;20244;-82
2024/01/25 09:57:18;;;;;;;7.53;4.57;;;8.90;72.30;;;;;;4951823;28;20207;-82
2024/01/25 09:59:45;;;;;;;9.03;4.10;;;8.90;72.50;;;;;;4949005;29;20244;-81
2024/01/25 10:02:11;;;;;;;5.57;4.37;;;8.80;72.50;;;;;;4934123;29;20201;-81
2024/01/25 10:04:37;;;;;;;9.13;4.90;;;8.90;72.70;;;;;;4934994;28;20185;-81
2024/01/25 10:07:03;;;;;;;7.47;3.87;;;8.90;72.70;;;;;;4948646;29;20197;-82
2024/01/25 10:09:37;;;;;;;5.97;3.97;;;8.80;72.60;;;;;;4934106;29;20636;-82
2024/01/25 10:12:03;;;;;;;5.70;3.63;;;8.80;72.70;;;;;;4934852;29;20226;-83
2024/01/25 10:14:30;;;;;;;7.87;4.77;;;8.90;72.90;;;;;;4934924;29;20217;-83
2024/01/25 10:16:57;;;;;;;5.70;3.37;;;8.90;72.80;;;;;;4934935;29;20216;-82
2024/01/25 10:19:23;;;;;;;5.47;3.20;;;8.90;72.70;;;;;;4931737;29;20213;-83
2024/01/25 10:21:50;;;;;;;3.70;3.20;;;9.10;72.80;;;;;;4936067;29;20664;-83
2024/01/25 10:24:15;;;;;;;6.60;3.40;;;9.10;72.60;;;;;;4937924;29;20177;-81
2024/01/25 10:26:44;;;;;;;3.80;3.03;;;9.10;72.40;;;;;;4938491;29;20187;-82
2024/01/25 10:29:10;;;;;;;4.33;3.10;;;9.10;72.00;;;;;;4937408;29;20185;-81
2024/01/25 10:31:42;;;;;;;3.57;2.90;;;9.00;72.10;;;;;;4938362;29;20212;-82
2024/01/25 10:34:13;;;;;;;4.77;3.37;;;9.10;72.20;;;;;;4937335;29;20648;-82
2024/01/25 10:36:40;;;;;;;8.07;3.40;;;9.00;72.10;;;;;;4936284;29;20218;-82
2024/01/25 10:39:08;;;;;;;5.17;3.27;;;9.00;72.10;;;;;;4938207;29;20185;-82
2024/01/25 10:41:34;;;;;;;5.33;2.70;;;9.00;72.20;;;;;;4937338;29;20542;-81
2024/01/25 10:44:01;;;;;;;5.23;3.87;;;9.00;72.50;;;;;;4937813;28;20213;-82
2024/01/25 10:46:29;;;;;;;3.50;2.90;;;9.00;72.60;;;;;;4935139;29;20197;-83
2024/01/25 10:48:58;;;;;;;4.60;3.47;;;8.90;72.60;;;;;;4935764;29;20189;-81
2024/01/25 10:51:26;;;;;;;3.83;3.20;;;8.90;72.70;;;;;;4936187;28;20177;-83
2024/01/25 10:53:52;;;;;;;3.80;3.40;;;8.90;72.80;;;;;;4936370;29;20231;-82
2024/01/25 10:56:18;;;;;;;4.40;3.50;;;9.00;72.90;;;;;;4935473;29;20185;-82
2024/01/25 10:58:44;;;;;;;4.17;3.30;;;9.20;72.90;;;;;;4937737;29;20200;-82
2024/01/25 11:01:14;;;;;;;5.13;3.83;;;9.00;72.70;;;;;;4934690;29;20190;-82
2024/01/25 11:03:40;;;;;;;5.50;3.63;;;9.10;72.80;;;;;;4952968;28;20190;-82
2024/01/25 11:06:10;;;;;;;4.77;3.67;;;9.10;72.50;;;;;;4938970;29;20310;-82
2024/01/25 11:08:39;;;;;;;3.17;2.60;;;9.10;72.10;;;;;;4931512;29;20186;-82
2024/01/25 11:11:12;;;;;;;3.90;2.50;;;9.10;72.00;;;;;;4945887;28;20542;-81
2024/01/25 11:13:42;;;;;;;5.33;3.33;;;9.00;71.90;;;;;;4937427;29;20236;-82
2024/01/25 11:16:18;;;;;;;4.33;2.50;;;9.10;72.20;;;;;;4952377;28;20555;-82
2024/01/25 11:18:52;;;;;;;4.30;3.10;;;9.10;72.20;;;;;;4951524;28;20207;-81
2024/01/25 11:21:40;;;;;;;5.80;3.33;;;9.10;72.00;;;;;;4933328;29;20200;-83
2024/01/25 11:24:21;;;;;;;4.37;3.07;;;9.10;71.60;;;;;;4938252;29;20169;-82
2024/01/25 11:26:48;;;;;;;8.53;3.97;;;9.10;71.60;;;;;;4952356;29;20248;-81
2024/01/25 11:29:18;;;;;;;4.63;3.30;;;9.00;71.50;;;;;;4936366;28;20211;-84
2024/01/25 11:31:45;;;;;;;5.17;3.37;;;9.10;71.50;;;;;;4936602;29;20278;-82
2024/01/25 11:34:11;;;;;;;5.17;3.30;;;9.20;71.30;;;;;;4935791;29;20197;-81
2024/01/25 11:36:37;;;;;;;6.53;3.20;;;9.10;71.10;;;;;;4935453;29;20344;-82
2024/01/25 11:39:03;;;;;;;5.40;3.13;;;9.10;70.90;;;;;;4952437;28;20272;-81
2024/01/25 11:41:31;;;;;;;6.17;3.10;;;9.10;71.00;;;;;;4937029;29;20247;-82
2024/01/25 11:43:56;;;;;;;5.07;2.80;;;9.10;71.00;;;;;;4934055;29;20297;-81
2024/01/25 11:46:22;;;;;;;5.50;2.70;;;9.20;71.10;;;;;;4935901;29;20300;-82
2024/01/25 11:48:48;;;;;;;4.57;2.60;;;9.20;70.70;;;;;;4934184;29;20200;-81
2024/01/25 11:51:14;;;;;;;5.23;2.80;;;9.20;70.50;;;;;;4936720;29;20632;-82
2024/01/25 11:53:40;;;;;;;5.20;2.60;;;9.20;70.40;;;;;;4936338;29;20223;-82
2024/01/25 11:56:10;;;;;;;4.87;3.00;;;9.30;70.60;;;;;;4942805;28;20196;-82
2024/01/25 11:58:37;;;;;;;4.27;2.37;;;9.20;70.30;;;;;;4940520;29;20224;-80
2024/01/25 12:01:07;;;;;;;6.17;3.13;;;9.20;70.40;;;;;;4934080;29;20190;-82
2024/01/25 12:03:37;;;;;;;4.70;2.67;;;9.20;70.40;;;;;;4935687;28;20220;-81
2024/01/25 12:06:09;;;;;;;5.47;3.10;;;9.30;70.20;;;;;;4952764;28;20185;-83
2024/01/25 12:08:35;;;;;;;3.70;2.73;;;9.20;70.20;;;;;;4936020;29;20196;-82
2024/01/25 12:11:09;;;;;;;6.30;3.27;;;9.30;70.50;;;;;;4935940;29;20623;-81
2024/01/25 12:13:35;;;;;;;6.20;2.63;;;9.30;70.40;;;;;;4935784;29;20225;-82
2024/01/25 12:16:03;;;;;;;7.03;2.90;;;9.30;70.40;;;;;;4936348;29;20189;-83
2024/01/25 12:18:29;;;;;;;5.83;3.17;;;9.40;70.20;;;;;;4934789;29;20545;-82
2024/01/25 12:20:57;;;;;;;5.50;2.80;;;9.40;70.20;;;;;;4937098;28;20184;-82
2024/01/25 12:23:23;;;;;;;4.40;3.03;;;9.40;69.30;;;;;;4935328;29;20189;-81
2024/01/25 12:25:48;;;;;;;6.87;3.47;;;9.30;69.10;;;;;;4936183;29;20723;-83
2024/01/25 12:28:14;;;;;;;9.43;3.43;;;9.50;69.60;;;;;;4935052;29;20193;-81
2024/01/25 12:30:40;;;;;;;8.30;3.40;;;9.30;69.10;;;;;;4934433;29;20177;-81
2024/01/25 12:33:05;;;;;;;6.90;3.40;;;9.40;69.30;;;;;;4921222;29;20203;-82
2024/01/25 12:35:31;;;;;;;6.37;3.90;;;9.30;69.70;;;;;;4937917;29;20190;-81
2024/01/25 12:37:56;;;;;;;5.33;3.70;;;9.20;69.80;;;;;;4930829;29;20217;-81
2024/01/25 12:40:22;;;;;;;4.50;3.43;;;9.20;69.80;;;;;;4931856;29;20743;-81
2024/01/25 12:42:47;;;;;;;5.27;3.17;;;9.20;70.30;;;;;;4934573;29;20197;-82
2024/01/25 12:45:13;;;;;;;7.03;3.47;;;9.20;70.30;;;;;;4920538;29;20630;-83